createdAt,value
2023-01-31T00:03:29.551Z,6.80
2023-01-31T00:08:32.195Z,9.20
2023-01-31T00:13:35.372Z,6.80
2023-01-31T00:18:39.218Z,11.50
2023-01-31T00:23:43.798Z,5.40
2023-01-31T00:28:48.429Z,12.50
2023-01-31T00:33:53.622Z,9.70
2023-01-31T00:38:58.506Z,10.90
2023-01-31T00:44:01.441Z,10.90
2023-01-31T00:49:04.079Z,8.20
2023-01-31T00:54:07.863Z,12.30
2023-01-31T00:59:13.346Z,7.90
2023-01-31T01:04:15.958Z,7.50
2023-01-31T01:09:19.886Z,12.20
2023-01-31T01:14:22.891Z,13.20
2023-01-31T01:19:25.510Z,4.90
2023-01-31T01:24:31.846Z,9.50
2023-01-31T01:29:35.209Z,9.80
2023-01-31T01:34:37.801Z,6.00
2023-01-31T01:39:41.072Z,5.90
2023-01-31T01:44:56.410Z,8.80
2023-01-31T01:50:20.924Z,10.90
2023-01-31T01:55:34.655Z,9.00
2023-01-31T02:00:37.841Z,13.40
2023-01-31T02:05:53.025Z,8.80
2023-01-31T02:11:33.603Z,3.70
2023-01-31T02:16:36.266Z,4.40
2023-01-31T02:21:54.041Z,7.30
2023-01-31T02:27:35.216Z,6.30
2023-01-31T02:38:09.715Z,8.70
2023-01-31T02:43:57.419Z,10.90
2023-01-31T02:49:15.995Z,6.30
2023-01-31T02:54:43.975Z,12.70
2023-01-31T02:59:46.605Z,6.60
2023-01-31T03:04:49.167Z,6.60
2023-01-31T03:10:21.974Z,8.10
2023-01-31T03:16:15.613Z,8.40
2023-01-31T03:21:31.113Z,4.70
2023-01-31T03:26:35.554Z,14.50
2023-01-31T03:31:42.377Z,9.20
2023-01-31T03:37:07.044Z,9.60
2023-01-31T03:42:19.974Z,9.30
2023-01-31T03:47:25.042Z,8.60
2023-01-31T03:52:35.201Z,8.80
2023-01-31T03:57:42.303Z,11.80
2023-01-31T04:02:48.823Z,10.50
2023-01-31T04:07:51.466Z,8.20
2023-01-31T04:12:54.452Z,8.40
2023-01-31T04:17:57.074Z,8.70
2023-01-31T04:22:59.931Z,12.00
2023-01-31T04:28:02.685Z,10.80
2023-01-31T04:33:05.263Z,10.10
2023-01-31T04:38:07.871Z,8.30
2023-01-31T04:43:10.844Z,10.70
2023-01-31T04:48:13.459Z,5.70
2023-01-31T04:53:16.065Z,7.90
2023-01-31T04:58:18.623Z,12.90
2023-01-31T05:03:21.663Z,9.70
2023-01-31T05:08:24.253Z,7.40
2023-01-31T05:13:27.855Z,6.30
2023-01-31T05:18:30.478Z,11.00
2023-01-31T05:23:33.205Z,10.20
2023-01-31T05:28:36.351Z,11.30
2023-01-31T05:33:39.297Z,9.30
2023-01-31T05:38:41.880Z,8.50
2023-01-31T05:43:44.431Z,6.00
2023-01-31T05:48:46.995Z,6.90
2023-01-31T05:53:49.636Z,8.10
2023-01-31T05:58:52.298Z,6.20
2023-01-31T06:03:55.331Z,11.50
2023-01-31T06:08:58.028Z,10.00
2023-01-31T06:14:02.227Z,5.70
2023-01-31T06:19:04.793Z,4.90
2023-01-31T06:24:07.585Z,10.30
2023-01-31T06:29:10.205Z,10.30
2023-01-31T06:34:12.939Z,8.80
2023-01-31T06:39:15.636Z,5.60
2023-01-31T06:44:18.412Z,8.60
2023-01-31T06:49:21.083Z,8.20
2023-01-31T06:54:23.740Z,6.00
2023-01-31T06:59:26.369Z,9.10
2023-01-31T07:04:28.950Z,9.00
2023-01-31T07:09:31.486Z,6.50
2023-01-31T07:14:34.064Z,10.20
2023-01-31T07:19:36.764Z,13.40
2023-01-31T07:24:39.493Z,12.90
2023-01-31T07:29:43.702Z,7.70
2023-01-31T07:34:46.515Z,3.20
2023-01-31T07:39:49.479Z,10.10
2023-01-31T07:44:52.573Z,9.50
2023-01-31T07:49:55.760Z,8.30
2023-01-31T07:54:58.747Z,8.30
2023-01-31T08:00:01.391Z,8.70
2023-01-31T08:05:04.493Z,9.80
2023-01-31T08:10:08.006Z,6.50
2023-01-31T08:15:11.385Z,9.60
2023-01-31T08:20:14.124Z,8.60
2023-01-31T08:25:19.698Z,10.40
2023-01-31T08:30:24.079Z,9.20
2023-01-31T08:35:26.828Z,6.70
2023-01-31T08:40:29.479Z,8.50
2023-01-31T08:45:34.753Z,6.20
2023-01-31T08:50:39.662Z,8.10
2023-01-31T08:55:43.088Z,9.90
2023-01-31T09:00:45.635Z,8.40
2023-01-31T09:05:48.231Z,5.40
2023-01-31T09:10:52.745Z,7.90
2023-01-31T09:16:08.610Z,4.00
2023-01-31T09:21:14.859Z,6.80
2023-01-31T09:26:17.455Z,9.30
2023-01-31T09:31:21.290Z,7.00
2023-01-31T09:36:28.407Z,3.40
2023-01-31T09:41:34.124Z,6.00
2023-01-31T09:46:42.771Z,6.60
2023-01-31T09:51:48.418Z,12.50
2023-01-31T09:57:03.103Z,8.20
2023-01-31T10:02:30.639Z,6.60
2023-01-31T10:07:46.223Z,6.90
2023-01-31T10:13:00.245Z,8.10
2023-01-31T10:18:08.419Z,10.40
2023-01-31T10:23:27.987Z,5.90
2023-01-31T10:28:42.897Z,7.50
2023-01-31T10:34:23.445Z,8.60
2023-01-31T10:39:47.824Z,5.30
2023-01-31T10:44:50.928Z,6.30
2023-01-31T10:49:53.805Z,4.90
2023-01-31T10:55:18.845Z,4.60
2023-01-31T11:00:26.673Z,5.70
2023-01-31T11:05:30.269Z,5.50
2023-01-31T11:10:33.241Z,7.90
2023-01-31T11:15:39.160Z,8.80
2023-01-31T11:20:47.510Z,5.60
2023-01-31T11:25:52.867Z,7.80
2023-01-31T11:30:55.914Z,4.90
2023-01-31T11:35:58.618Z,4.10
2023-01-31T11:41:01.309Z,4.30
2023-01-31T11:46:04.004Z,5.30
2023-01-31T11:51:08.551Z,6.60
2023-01-31T11:56:19.335Z,4.80
2023-01-31T12:06:36.277Z,8.20
2023-01-31T12:11:51.213Z,4.30
2023-01-31T12:16:56.566Z,6.00
2023-01-31T12:22:19.351Z,4.70
2023-01-31T12:27:46.566Z,6.80
2023-01-31T12:33:12.080Z,5.90
2023-01-31T12:38:40.646Z,3.50
2023-01-31T12:44:03.861Z,5.50
2023-01-31T12:49:28.289Z,9.60
2023-01-31T12:55:01.595Z,8.50
2023-01-31T13:00:22.990Z,5.30
2023-01-31T13:05:28.286Z,5.70
2023-01-31T13:10:39.325Z,5.70
2023-01-31T13:15:55.302Z,4.90
2023-01-31T13:21:08.319Z,6.90
2023-01-31T13:26:18.817Z,4.60
2023-01-31T13:31:27.086Z,7.60
2023-01-31T13:36:36.997Z,7.10
2023-01-31T13:41:40.264Z,4.70
2023-01-31T13:46:52.736Z,3.30
2023-01-31T13:52:18.200Z,5.10
2023-01-31T13:57:29.457Z,9.10
2023-01-31T14:02:32.473Z,8.00
2023-01-31T14:07:35.143Z,8.60
2023-01-31T14:12:38.465Z,14.80
2023-01-31T14:17:40.987Z,10.80
2023-01-31T14:23:22.160Z,9.30
2023-01-31T14:33:29.599Z,39.60
2023-01-31T14:38:41.643Z,20.40
2023-01-31T14:44:17.214Z,18.50
2023-01-31T14:49:43.086Z,16.60
2023-01-31T14:55:24.036Z,17.70
2023-01-31T15:00:30.308Z,11.70
2023-01-31T15:05:35.847Z,20.70
2023-01-31T15:11:03.671Z,21.60
2023-01-31T15:16:11.612Z,37.50
2023-01-31T15:21:23.692Z,31.30
2023-01-31T15:26:32.702Z,26.40
2023-01-31T15:31:44.265Z,25.30
2023-01-31T15:37:09.237Z,27.70
2023-01-31T15:42:32.126Z,26.80
2023-01-31T15:47:35.875Z,15.60
2023-01-31T15:52:38.477Z,10.00
2023-01-31T15:58:02.360Z,11.20
2023-01-31T16:03:08.211Z,20.70
2023-01-31T16:08:33.916Z,14.30
2023-01-31T16:13:43.129Z,19.70
2023-01-31T16:18:51.019Z,26.00
2023-01-31T16:24:02.476Z,9.70
2023-01-31T16:29:46.696Z,17.60
2023-01-31T16:35:19.490Z,19.30
2023-01-31T16:40:28.077Z,17.40
2023-01-31T16:45:33.759Z,19.20
2023-01-31T16:50:43.362Z,28.60
2023-01-31T16:55:46.619Z,27.40
2023-01-31T17:00:51.200Z,22.80
2023-01-31T17:05:54.087Z,24.10
2023-01-31T17:10:58.711Z,29.90
2023-01-31T17:16:01.439Z,36.20
2023-01-31T17:21:04.700Z,27.00
2023-01-31T17:26:15.479Z,13.30
2023-01-31T17:31:20.573Z,14.30
2023-01-31T17:36:23.683Z,9.40
2023-01-31T17:41:27.729Z,10.10
2023-01-31T17:46:33.366Z,13.50
2023-01-31T17:51:36.595Z,11.80
2023-01-31T17:56:39.487Z,7.60
2023-01-31T18:01:42.631Z,11.20
2023-01-31T18:06:45.922Z,13.30
2023-01-31T18:11:49.024Z,8.00
2023-01-31T18:16:54.035Z,11.20
2023-01-31T18:21:57.117Z,13.20
2023-01-31T18:26:59.752Z,12.30
2023-01-31T18:32:07.871Z,7.30
2023-01-31T18:37:16.605Z,12.40
2023-01-31T18:42:20.597Z,12.60
2023-01-31T18:47:23.190Z,11.10
2023-01-31T18:52:25.763Z,12.40
2023-01-31T18:57:28.317Z,13.80
2023-01-31T19:02:31.269Z,10.20
2023-01-31T19:07:34.794Z,11.20
2023-01-31T19:12:40.539Z,13.30
2023-01-31T19:17:43.254Z,12.00
2023-01-31T19:22:46.117Z,9.90
2023-01-31T19:27:48.656Z,7.60
2023-01-31T19:32:51.271Z,9.50
2023-01-31T19:37:53.903Z,11.00
2023-01-31T19:42:57.625Z,7.40
2023-01-31T19:48:00.940Z,9.80
2023-01-31T19:53:03.680Z,8.10
2023-01-31T19:58:06.248Z,8.20
2023-01-31T20:03:08.920Z,6.20
2023-01-31T20:08:11.697Z,6.80
2023-01-31T20:13:14.273Z,10.90
2023-01-31T20:18:17.854Z,6.30
2023-01-31T20:23:21.421Z,10.50
2023-01-31T20:28:25.377Z,10.00
2023-01-31T20:33:27.975Z,9.10
2023-01-31T20:38:31.004Z,8.70
2023-01-31T20:43:33.669Z,7.40
2023-01-31T20:48:36.518Z,13.10
2023-01-31T20:53:39.339Z,11.90
2023-01-31T20:58:43.428Z,9.40
2023-01-31T21:03:47.698Z,12.90
2023-01-31T21:08:50.356Z,12.80
2023-01-31T21:13:52.965Z,14.10
2023-01-31T21:18:57.202Z,14.00
2023-01-31T21:23:59.788Z,17.10
2023-01-31T21:29:04.162Z,13.10
2023-01-31T21:34:06.874Z,12.20
2023-01-31T21:39:12.007Z,10.90
2023-01-31T21:44:14.688Z,13.10
2023-01-31T21:49:17.307Z,12.10
2023-01-31T21:54:19.893Z,12.20
2023-01-31T21:59:22.813Z,14.50
2023-01-31T22:04:25.466Z,12.70
2023-01-31T22:09:28.172Z,10.50
2023-01-31T22:14:30.901Z,9.90
2023-01-31T22:19:33.471Z,8.70
2023-01-31T22:24:36.092Z,9.50
2023-01-31T22:29:38.707Z,10.40
2023-01-31T22:34:41.283Z,8.50
2023-01-31T22:39:44.124Z,8.00
2023-01-31T22:44:46.770Z,7.20
2023-01-31T22:49:49.401Z,7.40
2023-01-31T22:54:51.928Z,8.40
2023-01-31T22:59:54.804Z,6.30
2023-01-31T23:04:58.637Z,4.10
2023-01-31T23:10:01.289Z,4.90
2023-01-31T23:15:06.134Z,4.90
2023-01-31T23:20:14.550Z,4.60
2023-01-31T23:25:17.483Z,6.60
2023-01-31T23:30:20.570Z,7.30
2023-01-31T23:35:23.424Z,3.30
2023-01-31T23:40:26.674Z,4.20
2023-01-31T23:45:29.315Z,4.70
2023-01-31T23:50:31.839Z,3.40
2023-01-31T23:55:34.548Z,5.40
